createdAt,value
2022-11-06T14:46:03.323Z,628.30
2022-11-06T17:32:30.875Z,705.60
2022-11-06T17:33:32.988Z,605.83
2022-11-06T17:34:37.910Z,722.40
2022-11-06T17:35:40.160Z,754.50
2022-11-06T17:36:45.668Z,790.15
2022-11-06T17:37:47.780Z,676.45
2022-11-06T17:38:52.847Z,770.22
2022-11-06T17:39:57.736Z,769.92
2022-11-06T17:41:02.633Z,784.25
2022-11-06T17:42:07.513Z,789.92
2022-11-06T17:43:10.091Z,770.67
2022-11-06T17:44:16.971Z,832.33
2022-11-06T17:45:19.037Z,726.97
2022-11-06T17:46:23.776Z,792.22
2022-11-06T17:47:31.126Z,754.85
2022-11-06T17:48:37.296Z,746.60
2022-11-06T17:49:41.920Z,752.60
2022-11-06T17:50:58.989Z,736.45
2022-11-06T17:52:03.696Z,736.05
2022-11-06T17:53:05.703Z,752.83
2022-11-06T17:54:10.693Z,746.58
2022-11-06T17:55:15.366Z,731.42
2022-11-06T17:56:17.393Z,727.13
2022-11-06T17:57:24.250Z,759.53
2022-11-06T17:58:26.511Z,725.17
2022-11-06T17:59:31.708Z,718.42
2022-11-06T18:00:36.369Z,681.33
2022-11-06T18:01:41.059Z,656.03
2022-11-06T18:03:00.827Z,655.38
2022-11-06T18:04:09.182Z,628.80
2022-11-06T18:05:14.034Z,642.30
2022-11-06T18:06:16.884Z,697.80
2022-11-06T18:07:21.608Z,723.13
2022-11-06T18:08:26.268Z,723.30
2022-11-06T18:09:31.052Z,725.25
2022-11-06T18:10:33.208Z,714.40
2022-11-06T18:11:38.052Z,734.28
2022-11-06T18:12:40.241Z,745.85
2022-11-06T18:13:45.573Z,739.28
2022-11-06T18:14:50.374Z,721.08
2022-11-06T18:15:53.536Z,714.30
2022-11-06T18:16:58.344Z,739.28
2022-11-06T18:18:05.867Z,739.85
2022-11-06T18:19:12.402Z,742.20
2022-11-06T18:20:17.091Z,758.45
2022-11-06T18:21:19.542Z,782.95
2022-11-06T18:22:24.550Z,807.17
2022-11-06T18:23:26.634Z,807.55
2022-11-06T18:24:31.447Z,834.08
2022-11-06T18:25:36.120Z,784.83
2022-11-06T18:26:38.384Z,783.78
2022-11-06T18:27:43.336Z,766.65
2022-11-06T18:28:45.454Z,755.88
2022-11-06T18:29:50.274Z,773.70
2022-11-06T18:30:52.866Z,770.50
2022-11-06T18:31:57.599Z,825.38
2022-11-06T18:33:05.046Z,819.95
2022-11-06T18:34:07.609Z,818.80
2022-11-06T18:35:12.956Z,839.42
2022-11-06T18:36:16.055Z,708.30
2022-11-06T18:37:20.945Z,755.47
2022-11-06T18:38:23.160Z,768.75
2022-11-06T18:39:28.132Z,791.95
2022-11-06T18:40:32.755Z,822.05
2022-11-06T18:41:38.190Z,787.95
2022-11-06T18:42:42.873Z,831.70
2022-11-06T18:43:45.616Z,800.92
2022-11-06T18:44:50.327Z,814.80
2022-11-06T18:45:52.474Z,859.40
2022-11-06T18:46:57.164Z,818.90
2022-11-06T18:47:59.291Z,742.53
2022-11-06T18:49:06.904Z,834.40
2022-11-06T18:50:10.125Z,781.97
2022-11-06T18:51:27.815Z,832.03
2022-11-06T18:52:56.821Z,785.08
2022-11-06T18:54:04.722Z,762.35
2022-11-06T18:55:08.180Z,828.15
2022-11-06T18:56:13.702Z,769.70
2022-11-06T18:57:18.380Z,707.00
2022-11-06T18:58:21.181Z,718.05
2022-11-06T18:59:25.972Z,709.92
2022-11-06T19:00:28.131Z,453.25
2022-11-06T19:01:34.740Z,452.40
2022-11-06T19:02:39.834Z,442.05
2022-11-06T19:03:45.577Z,455.95
2022-11-06T19:04:53.051Z,544.08
2022-11-06T19:05:55.355Z,593.20
2022-11-06T19:07:00.209Z,584.70
2022-11-06T19:08:02.744Z,576.63
2022-11-06T19:09:08.385Z,581.88
2022-11-06T19:10:12.808Z,597.78
2022-11-06T19:11:18.723Z,571.03
2022-11-06T19:12:21.087Z,548.17
2022-11-06T19:13:26.060Z,553.00
2022-11-06T19:14:30.760Z,528.55
2022-11-06T19:15:33.115Z,359.23
2022-11-06T19:16:38.270Z,376.45
2022-11-06T19:17:43.324Z,358.85
2022-11-06T19:20:14.737Z,417.83
2022-11-06T19:21:17.911Z,430.13
2022-11-06T19:22:22.873Z,332.33
2022-11-06T19:23:28.644Z,296.58
2022-11-06T19:24:32.075Z,213.85
2022-11-06T19:25:36.899Z,222.95
2022-11-06T19:26:41.787Z,220.43
2022-11-06T19:27:44.077Z,202.77
2022-11-06T19:28:54.446Z,238.40
2022-11-06T19:29:59.206Z,218.23
2022-11-06T19:31:01.410Z,226.38
2022-11-06T19:32:06.448Z,222.00
2022-11-06T19:33:09.020Z,229.05
2022-11-06T19:34:16.791Z,274.15
2022-11-06T19:35:21.721Z,287.35
2022-11-06T19:36:26.908Z,265.02
2022-11-06T19:37:32.454Z,291.88
2022-11-06T19:38:37.352Z,315.75
2022-11-06T19:39:42.259Z,313.63
2022-11-06T19:40:53.786Z,410.35
2022-11-06T19:42:01.230Z,433.23
2022-11-06T19:43:07.221Z,448.73
2022-11-06T19:44:12.833Z,455.55
2022-11-06T19:45:15.092Z,375.90
2022-11-06T19:46:25.015Z,247.75
2022-11-06T19:47:34.504Z,176.95
2022-11-06T19:48:37.080Z,176.38
2022-11-06T19:49:41.929Z,177.88
2022-11-06T19:50:59.626Z,201.88
2022-11-06T19:52:42.036Z,196.98
2022-11-06T19:53:30.517Z,199.35
2022-11-06T19:54:35.559Z,208.52
2022-11-06T19:55:39.515Z,206.07
2022-11-06T19:57:28.964Z,198.82
2022-11-06T19:58:09.300Z,219.07
2022-11-06T19:59:14.957Z,237.57
2022-11-06T20:00:17.265Z,224.38
2022-11-06T20:01:23.485Z,239.55
2022-11-06T20:02:25.778Z,234.38
2022-11-06T20:03:30.610Z,247.93
2022-11-06T20:04:33.253Z,247.95
2022-11-06T20:05:39.483Z,351.75
2022-11-06T20:06:47.057Z,392.25
2022-11-06T20:07:49.354Z,264.42
2022-11-06T20:08:54.482Z,224.00
2022-11-06T20:10:02.251Z,358.20
2022-11-06T20:11:07.832Z,382.40
2022-11-06T20:12:10.302Z,405.73
2022-11-06T20:13:16.017Z,431.90
2022-11-06T20:14:21.895Z,508.52
2022-11-06T20:15:24.603Z,511.58
2022-11-06T20:16:29.864Z,331.25
2022-11-06T20:17:34.827Z,469.17
2022-11-06T20:18:37.541Z,491.80
2022-11-06T20:19:42.394Z,567.55
2022-11-06T20:20:44.579Z,547.65
2022-11-06T20:21:52.393Z,463.30
2022-11-06T20:22:57.207Z,510.08
2022-11-06T20:24:02.078Z,445.00
2022-11-06T20:25:04.742Z,339.92
2022-11-06T20:26:13.539Z,203.75
2022-11-06T20:27:18.534Z,753.40
2022-11-06T20:28:20.848Z,755.45
2022-11-06T20:29:25.597Z,811.97
2022-11-06T20:30:30.292Z,811.70
2022-11-06T20:31:32.890Z,820.97
2022-11-06T20:32:37.780Z,804.35
2022-11-06T20:33:43.103Z,823.85
2022-11-06T20:34:47.830Z,807.03
2022-11-06T20:35:50.143Z,814.28
2022-11-06T20:36:58.268Z,748.47
2022-11-06T20:38:00.566Z,742.67
2022-11-06T20:39:06.652Z,776.13
2022-11-06T20:40:09.879Z,779.53
2022-11-06T20:41:15.185Z,782.13
2022-11-06T20:42:20.079Z,807.10
2022-11-06T20:43:24.925Z,802.97
2022-11-06T20:44:27.293Z,827.08
2022-11-06T20:45:37.078Z,853.22
2022-11-06T20:46:41.792Z,833.67
2022-11-06T20:47:43.981Z,833.25
2022-11-06T20:48:49.699Z,834.63
2022-11-06T20:49:54.892Z,804.10
2022-11-06T20:50:57.742Z,805.97
2022-11-06T20:52:14.359Z,792.63
2022-11-06T20:53:17.405Z,775.15
2022-11-06T20:54:22.255Z,741.17
2022-11-06T20:55:24.333Z,745.90
2022-11-06T20:56:29.852Z,748.95
2022-11-06T20:57:32.004Z,730.63
2022-11-06T20:58:37.207Z,710.42
2022-11-06T20:59:39.398Z,662.47
2022-11-06T21:00:44.215Z,653.85
2022-11-06T21:01:49.562Z,664.78
2022-11-06T21:03:00.512Z,618.90
2022-11-06T21:04:06.711Z,713.33
2022-11-06T21:05:09.357Z,632.65
2022-11-06T21:06:14.969Z,691.15
2022-11-06T21:07:22.285Z,756.38
2022-11-06T21:08:28.010Z,692.33
2022-11-06T21:09:32.693Z,716.70
2022-11-06T21:10:37.446Z,571.65
2022-11-06T21:11:42.197Z,567.13
2022-11-06T21:12:47.130Z,579.30
2022-11-06T21:13:51.808Z,645.15
2022-11-06T21:14:56.499Z,590.58
2022-11-06T21:15:59.513Z,675.45
2022-11-06T21:17:05.077Z,490.17
2022-11-06T21:18:07.223Z,588.75
2022-11-06T21:19:11.926Z,602.45
2022-11-06T21:20:22.452Z,605.00
2022-11-06T21:21:29.471Z,586.13
2022-11-06T21:22:34.175Z,576.22
2022-11-06T21:23:39.435Z,599.67
2022-11-06T21:24:44.358Z,607.08
2022-11-06T21:25:46.699Z,826.70
2022-11-06T21:26:54.563Z,844.33
2022-11-06T21:27:56.827Z,838.53
2022-11-06T21:29:02.026Z,838.65
2022-11-06T21:30:08.023Z,856.50
2022-11-06T21:31:11.289Z,881.42
2022-11-06T21:32:15.986Z,878.47
2022-11-06T21:33:18.059Z,878.50
2022-11-06T21:34:23.145Z,896.80
2022-11-06T21:35:25.267Z,870.80
2022-11-06T21:36:31.910Z,888.67
2022-11-06T21:37:36.588Z,880.33
2022-11-06T21:38:41.380Z,863.63
2022-11-06T21:39:46.207Z,875.33
2022-11-06T21:40:48.354Z,852.70
2022-11-06T21:41:53.081Z,844.03
2022-11-06T21:42:55.602Z,849.20
2022-11-06T21:44:00.629Z,848.70
2022-11-06T21:45:02.680Z,846.38
2022-11-06T21:46:09.843Z,837.70
2022-11-06T21:47:14.585Z,709.97
2022-11-06T21:48:32.811Z,757.00
2022-11-06T21:49:41.506Z,805.13
2022-11-06T21:50:43.588Z,829.92
2022-11-06T21:51:48.176Z,845.65
2022-11-06T21:53:08.424Z,785.00
2022-11-06T21:54:26.128Z,758.33
2022-11-06T21:55:43.128Z,854.47
2022-11-06T21:56:50.427Z,905.78
2022-11-06T21:57:52.715Z,908.30
2022-11-06T21:58:59.760Z,930.28
2022-11-06T22:00:01.953Z,929.30
2022-11-06T22:01:07.226Z,884.97
2022-11-06T22:02:13.163Z,874.67
2022-11-06T22:03:16.140Z,906.42
2022-11-06T22:04:20.979Z,860.22
2022-11-06T22:05:23.178Z,872.28
2022-11-06T22:06:29.513Z,837.00
2022-11-06T22:07:34.108Z,845.10
2022-11-06T22:08:41.362Z,831.65
2022-11-06T22:09:46.126Z,867.42
2022-11-06T22:10:48.214Z,866.83
2022-11-06T22:11:53.014Z,921.35
2022-11-06T22:12:55.154Z,914.20
2022-11-06T22:14:01.840Z,882.83
2022-11-06T22:15:07.610Z,865.80
2022-11-06T22:16:11.660Z,830.85
2022-11-06T22:17:16.281Z,743.83
2022-11-06T22:18:18.414Z,755.75
2022-11-06T22:19:23.064Z,834.38
2022-11-06T22:20:25.161Z,867.25
2022-11-06T22:21:32.654Z,902.47
2022-11-06T22:22:34.852Z,860.70
2022-11-06T22:23:42.673Z,915.35
2022-11-06T22:24:47.395Z,872.10
2022-11-06T22:25:49.509Z,864.95
2022-11-06T22:26:56.527Z,922.22
2022-11-06T22:27:58.585Z,872.40
2022-11-06T22:29:05.168Z,912.80
2022-11-06T22:30:08.425Z,908.30
2022-11-06T22:31:13.845Z,893.85
2022-11-06T22:32:18.537Z,886.78
2022-11-06T22:33:20.551Z,883.78
2022-11-06T22:34:25.127Z,857.13
2022-11-06T22:35:29.855Z,890.42
2022-11-06T22:36:32.648Z,806.35
2022-11-06T22:37:37.459Z,805.72
2022-11-06T22:38:43.853Z,816.25
2022-11-06T22:39:50.621Z,824.33
2022-11-06T22:40:53.630Z,785.75
2022-11-06T22:41:58.315Z,818.70
2022-11-06T22:43:00.808Z,816.15
2022-11-06T22:44:06.682Z,802.40
2022-11-06T22:45:09.746Z,806.40
2022-11-06T22:46:16.881Z,806.45
2022-11-06T22:47:21.766Z,817.45
2022-11-06T22:48:23.984Z,799.95
2022-11-06T22:49:28.806Z,813.15
2022-11-06T22:50:30.937Z,795.75
2022-11-06T22:51:36.475Z,820.55
2022-11-06T22:52:38.599Z,813.50
2022-11-06T22:53:46.118Z,815.83
2022-11-06T22:54:48.124Z,835.25
2022-11-06T22:55:57.437Z,813.38
2022-11-06T22:56:59.590Z,834.47
2022-11-06T22:58:04.280Z,827.53
2022-11-06T22:59:08.845Z,835.17
2022-11-06T23:00:15.295Z,855.83
2022-11-06T23:01:21.673Z,840.10
2022-11-06T23:02:26.564Z,841.08
2022-11-06T23:03:30.366Z,828.58
2022-11-06T23:04:35.016Z,833.72
2022-11-06T23:05:39.800Z,843.97
2022-11-06T23:06:44.829Z,841.55
2022-11-06T23:07:47.028Z,832.78
2022-11-06T23:08:54.797Z,857.28
2022-11-06T23:09:56.868Z,845.33
2022-11-06T23:11:02.593Z,850.88
2022-11-06T23:12:05.215Z,848.88
2022-11-06T23:13:09.881Z,868.78
2022-11-06T23:14:11.909Z,864.05
2022-11-06T23:15:16.529Z,853.70
2022-11-06T23:16:41.724Z,811.13
2022-11-06T23:17:46.630Z,782.58
2022-11-06T23:18:48.738Z,798.47
2022-11-06T23:19:53.942Z,788.40
2022-11-06T23:20:58.770Z,804.45
2022-11-06T23:22:16.222Z,817.00
2022-11-06T23:23:20.845Z,795.75
2022-11-06T23:24:25.451Z,806.67
2022-11-06T23:25:30.814Z,806.85
2022-11-06T23:26:33.021Z,832.88
2022-11-06T23:27:38.794Z,837.63
2022-11-06T23:28:41.305Z,849.58
2022-11-06T23:29:46.054Z,842.25
2022-11-06T23:30:48.165Z,825.88
2022-11-06T23:31:52.849Z,829.08
2022-11-06T23:32:57.472Z,843.95
2022-11-06T23:33:59.652Z,818.72
2022-11-06T23:35:05.050Z,808.75
2022-11-06T23:36:09.091Z,829.72
2022-11-06T23:37:14.005Z,816.78
2022-11-06T23:38:16.026Z,830.28
2022-11-06T23:39:20.750Z,818.38
2022-11-06T23:40:28.303Z,825.38
2022-11-06T23:41:46.096Z,835.83
2022-11-06T23:42:51.810Z,839.67
2022-11-06T23:43:53.866Z,826.28
2022-11-06T23:45:10.938Z,833.65
2022-11-06T23:46:18.853Z,822.45
2022-11-06T23:47:23.472Z,789.45
2022-11-06T23:48:28.077Z,773.42
2022-11-06T23:49:30.283Z,768.15
2022-11-06T23:50:35.198Z,784.72
2022-11-06T23:51:37.222Z,798.10
2022-11-06T23:52:41.869Z,793.38
2022-11-06T23:53:43.889Z,799.80
2022-11-06T23:54:48.552Z,806.60
2022-11-06T23:55:53.246Z,817.60
2022-11-06T23:56:57.903Z,816.67
2022-11-06T23:57:59.952Z,821.45
2022-11-06T23:59:04.650Z,822.38
